sensor_id;sensor_type;location;lat;lon;timestamp;P1;durP1;ratioP1;P2;durP2;ratioP2
15155;SDS011;7678;50.058;8.306;2023-02-01T00:00:24;13.13;;;9.07;;
15155;SDS011;7678;50.058;8.306;2023-02-01T00:02:52;15.07;;;9.73;;
15155;SDS011;7678;50.058;8.306;2023-02-01T00:05:20;15.07;;;8.77;;
15155;SDS011;7678;50.058;8.306;2023-02-01T00:07:48;13.57;;;9.40;;
15155;SDS011;7678;50.058;8.306;2023-02-01T00:10:16;14.10;;;9.23;;
15155;SDS011;7678;50.058;8.306;2023-02-01T00:12:45;10.27;;;8.73;;
15155;SDS011;7678;50.058;8.306;2023-02-01T00:15:16;10.23;;;9.20;;
15155;SDS011;7678;50.058;8.306;2023-02-01T00:17:45;11.67;;;9.87;;
15155;SDS011;7678;50.058;8.306;2023-02-01T00:20:13;11.00;;;8.70;;
15155;SDS011;7678;50.058;8.306;2023-02-01T00:22:41;12.60;;;9.10;;
15155;SDS011;7678;50.058;8.306;2023-02-01T00:25:09;15.57;;;8.60;;
15155;SDS011;7678;50.058;8.306;2023-02-01T00:27:40;15.47;;;9.20;;
15155;SDS011;7678;50.058;8.306;2023-02-01T00:30:10;11.23;;;9.27;;
15155;SDS011;7678;50.058;8.306;2023-02-01T00:32:38;15.30;;;11.33;;
15155;SDS011;7678;50.058;8.306;2023-02-01T00:35:07;12.63;;;9.67;;
15155;SDS011;7678;50.058;8.306;2023-02-01T00:37:36;12.33;;;9.60;;
15155;SDS011;7678;50.058;8.306;2023-02-01T00:40:04;11.23;;;8.50;;
15155;SDS011;7678;50.058;8.306;2023-02-01T00:42:33;10.10;;;7.87;;
15155;SDS011;7678;50.058;8.306;2023-02-01T00:45:01;11.53;;;8.27;;
15155;SDS011;7678;50.058;8.306;2023-02-01T00:47:31;9.23;;;7.50;;
15155;SDS011;7678;50.058;8.306;2023-02-01T00:49:59;12.27;;;8.03;;
15155;SDS011;7678;50.058;8.306;2023-02-01T00:52:27;10.67;;;8.63;;
15155;SDS011;7678;50.058;8.306;2023-02-01T00:54:55;12.80;;;9.27;;
15155;SDS011;7678;50.058;8.306;2023-02-01T00:57:23;12.30;;;9.07;;
15155;SDS011;7678;50.058;8.306;2023-02-01T00:59:51;15.17;;;9.97;;
15155;SDS011;7678;50.058;8.306;2023-02-01T01:02:19;13.57;;;9.10;;
15155;SDS011;7678;50.058;8.306;2023-02-01T01:04:51;14.73;;;11.13;;
15155;SDS011;7678;50.058;8.306;2023-02-01T01:07:19;13.63;;;9.67;;
15155;SDS011;7678;50.058;8.306;2023-02-01T01:09:47;11.17;;;9.93;;
15155;SDS011;7678;50.058;8.306;2023-02-01T01:12:15;14.37;;;10.33;;
15155;SDS011;7678;50.058;8.306;2023-02-01T01:14:45;12.10;;;10.00;;
15155;SDS011;7678;50.058;8.306;2023-02-01T01:17:16;13.67;;;9.80;;
15155;SDS011;7678;50.058;8.306;2023-02-01T01:19:44;14.40;;;11.17;;
15155;SDS011;7678;50.058;8.306;2023-02-01T01:22:13;17.07;;;11.17;;
15155;SDS011;7678;50.058;8.306;2023-02-01T01:24:41;15.10;;;11.30;;
15155;SDS011;7678;50.058;8.306;2023-02-01T01:27:09;17.77;;;11.47;;
15155;SDS011;7678;50.058;8.306;2023-02-01T01:29:37;15.87;;;10.93;;
15155;SDS011;7678;50.058;8.306;2023-02-01T01:32:07;13.30;;;11.10;;
15155;SDS011;7678;50.058;8.306;2023-02-01T01:34:35;17.03;;;11.73;;
15155;SDS011;7678;50.058;8.306;2023-02-01T01:37:03;16.93;;;11.20;;
15155;SDS011;7678;50.058;8.306;2023-02-01T01:39:32;15.60;;;10.60;;
15155;SDS011;7678;50.058;8.306;2023-02-01T01:42:00;19.93;;;11.87;;
15155;SDS011;7678;50.058;8.306;2023-02-01T01:47:24;15.37;;;10.97;;
15155;SDS011;7678;50.058;8.306;2023-02-01T01:49:52;18.07;;;11.23;;
15155;SDS011;7678;50.058;8.306;2023-02-01T01:52:20;21.83;;;12.27;;
15155;SDS011;7678;50.058;8.306;2023-02-01T01:54:51;16.47;;;10.63;;
15155;SDS011;7678;50.058;8.306;2023-02-01T01:57:22;14.13;;;11.43;;
15155;SDS011;7678;50.058;8.306;2023-02-01T01:59:55;13.93;;;10.60;;
15155;SDS011;7678;50.058;8.306;2023-02-01T02:02:27;14.97;;;10.37;;
15155;SDS011;7678;50.058;8.306;2023-02-01T02:04:57;13.27;;;10.67;;
15155;SDS011;7678;50.058;8.306;2023-02-01T02:07:26;16.20;;;10.37;;
15155;SDS011;7678;50.058;8.306;2023-02-01T02:09:58;16.87;;;10.63;;
15155;SDS011;7678;50.058;8.306;2023-02-01T02:12:27;14.57;;;9.97;;
15155;SDS011;7678;50.058;8.306;2023-02-01T02:14:55;15.23;;;10.50;;
15155;SDS011;7678;50.058;8.306;2023-02-01T02:17:26;14.57;;;11.67;;
15155;SDS011;7678;50.058;8.306;2023-02-01T02:23:15;15.27;;;11.83;;
15155;SDS011;7678;50.058;8.306;2023-02-01T02:26:12;16.87;;;12.50;;
15155;SDS011;7678;50.058;8.306;2023-02-01T02:29:10;20.77;;;13.47;;
15155;SDS011;7678;50.058;8.306;2023-02-01T02:32:04;18.53;;;13.23;;
15155;SDS011;7678;50.058;8.306;2023-02-01T02:34:49;22.87;;;13.00;;
15155;SDS011;7678;50.058;8.306;2023-02-01T02:37:22;19.47;;;13.17;;
15155;SDS011;7678;50.058;8.306;2023-02-01T02:39:57;20.30;;;13.20;;
15155;SDS011;7678;50.058;8.306;2023-02-01T02:42:34;16.50;;;13.50;;
15155;SDS011;7678;50.058;8.306;2023-02-01T02:45:27;15.73;;;12.13;;
15155;SDS011;7678;50.058;8.306;2023-02-01T02:48:17;16.97;;;12.40;;
15155;SDS011;7678;50.058;8.306;2023-02-01T02:50:53;17.40;;;11.83;;
15155;SDS011;7678;50.058;8.306;2023-02-01T02:53:46;13.83;;;11.77;;
15155;SDS011;7678;50.058;8.306;2023-02-01T02:56:40;14.70;;;11.50;;
15155;SDS011;7678;50.058;8.306;2023-02-01T02:59:26;20.33;;;11.90;;
15155;SDS011;7678;50.058;8.306;2023-02-01T03:02:13;14.77;;;11.53;;
15155;SDS011;7678;50.058;8.306;2023-02-01T03:05:00;15.33;;;12.60;;
15155;SDS011;7678;50.058;8.306;2023-02-01T03:10:30;21.73;;;11.90;;
15155;SDS011;7678;50.058;8.306;2023-02-01T03:13:04;17.07;;;12.27;;
15155;SDS011;7678;50.058;8.306;2023-02-01T03:15:38;16.13;;;13.07;;
15155;SDS011;7678;50.058;8.306;2023-02-01T03:18:11;16.30;;;11.97;;
15155;SDS011;7678;50.058;8.306;2023-02-01T03:20:43;18.20;;;11.97;;
15155;SDS011;7678;50.058;8.306;2023-02-01T03:23:16;15.23;;;11.93;;
15155;SDS011;7678;50.058;8.306;2023-02-01T03:25:49;13.50;;;10.83;;
15155;SDS011;7678;50.058;8.306;2023-02-01T03:28:20;16.37;;;11.70;;
15155;SDS011;7678;50.058;8.306;2023-02-01T03:30:52;16.93;;;12.43;;
15155;SDS011;7678;50.058;8.306;2023-02-01T03:33:21;15.90;;;12.00;;
15155;SDS011;7678;50.058;8.306;2023-02-01T03:35:57;16.50;;;11.50;;
15155;SDS011;7678;50.058;8.306;2023-02-01T03:38:32;17.73;;;12.03;;
15155;SDS011;7678;50.058;8.306;2023-02-01T03:41:06;18.47;;;12.23;;
15155;SDS011;7678;50.058;8.306;2023-02-01T03:43:41;15.77;;;11.80;;
15155;SDS011;7678;50.058;8.306;2023-02-01T03:46:18;19.80;;;12.03;;
15155;SDS011;7678;50.058;8.306;2023-02-01T03:48:52;19.60;;;12.70;;
15155;SDS011;7678;50.058;8.306;2023-02-01T03:51:21;18.87;;;11.30;;
15155;SDS011;7678;50.058;8.306;2023-02-01T03:53:52;21.17;;;12.17;;
15155;SDS011;7678;50.058;8.306;2023-02-01T03:56:21;21.33;;;12.10;;
15155;SDS011;7678;50.058;8.306;2023-02-01T03:58:50;23.03;;;12.33;;
15155;SDS011;7678;50.058;8.306;2023-02-01T04:01:26;22.40;;;11.57;;
15155;SDS011;7678;50.058;8.306;2023-02-01T04:03:55;17.30;;;11.87;;
15155;SDS011;7678;50.058;8.306;2023-02-01T04:06:24;16.20;;;10.70;;
15155;SDS011;7678;50.058;8.306;2023-02-01T04:08:54;18.53;;;12.53;;
15155;SDS011;7678;50.058;8.306;2023-02-01T04:11:22;16.13;;;10.67;;
15155;SDS011;7678;50.058;8.306;2023-02-01T04:13:50;17.00;;;11.10;;
15155;SDS011;7678;50.058;8.306;2023-02-01T04:16:18;18.70;;;11.77;;
15155;SDS011;7678;50.058;8.306;2023-02-01T04:18:46;14.57;;;12.17;;
15155;SDS011;7678;50.058;8.306;2023-02-01T04:21:14;16.53;;;10.70;;
15155;SDS011;7678;50.058;8.306;2023-02-01T04:23:42;15.60;;;11.10;;
15155;SDS011;7678;50.058;8.306;2023-02-01T04:26:12;20.70;;;10.77;;
15155;SDS011;7678;50.058;8.306;2023-02-01T04:28:40;17.60;;;11.03;;
15155;SDS011;7678;50.058;8.306;2023-02-01T04:31:08;19.47;;;11.23;;
15155;SDS011;7678;50.058;8.306;2023-02-01T04:33:39;13.67;;;9.53;;
15155;SDS011;7678;50.058;8.306;2023-02-01T04:36:07;20.30;;;10.40;;
15155;SDS011;7678;50.058;8.306;2023-02-01T04:38:35;17.97;;;10.17;;
15155;SDS011;7678;50.058;8.306;2023-02-01T04:41:03;15.53;;;10.07;;
15155;SDS011;7678;50.058;8.306;2023-02-01T04:43:32;19.10;;;10.50;;
15155;SDS011;7678;50.058;8.306;2023-02-01T04:46:00;19.67;;;10.60;;
15155;SDS011;7678;50.058;8.306;2023-02-01T04:48:28;17.00;;;10.13;;
15155;SDS011;7678;50.058;8.306;2023-02-01T04:50:56;16.50;;;10.17;;
15155;SDS011;7678;50.058;8.306;2023-02-01T04:53:24;20.07;;;10.60;;
15155;SDS011;7678;50.058;8.306;2023-02-01T04:55:52;17.23;;;9.67;;
15155;SDS011;7678;50.058;8.306;2023-02-01T04:58:20;15.23;;;9.63;;
15155;SDS011;7678;50.058;8.306;2023-02-01T05:00:50;14.43;;;9.87;;
15155;SDS011;7678;50.058;8.306;2023-02-01T05:03:18;15.53;;;9.23;;
15155;SDS011;7678;50.058;8.306;2023-02-01T05:05:47;15.00;;;9.00;;
15155;SDS011;7678;50.058;8.306;2023-02-01T05:08:15;18.37;;;9.60;;
15155;SDS011;7678;50.058;8.306;2023-02-01T05:10:44;16.13;;;9.37;;
15155;SDS011;7678;50.058;8.306;2023-02-01T05:13:12;14.83;;;9.20;;
15155;SDS011;7678;50.058;8.306;2023-02-01T05:15:59;18.47;;;9.40;;
15155;SDS011;7678;50.058;8.306;2023-02-01T05:18:27;19.10;;;9.87;;
15155;SDS011;7678;50.058;8.306;2023-02-01T05:20:55;17.47;;;8.50;;
15155;SDS011;7678;50.058;8.306;2023-02-01T05:23:23;12.93;;;8.40;;
15155;SDS011;7678;50.058;8.306;2023-02-01T05:25:51;16.30;;;8.33;;
15155;SDS011;7678;50.058;8.306;2023-02-01T05:28:19;24.53;;;9.03;;
15155;SDS011;7678;50.058;8.306;2023-02-01T05:30:47;20.30;;;8.87;;
15155;SDS011;7678;50.058;8.306;2023-02-01T05:33:18;19.13;;;7.70;;
15155;SDS011;7678;50.058;8.306;2023-02-01T05:35:46;11.40;;;6.67;;
15155;SDS011;7678;50.058;8.306;2023-02-01T05:38:16;17.77;;;7.07;;
15155;SDS011;7678;50.058;8.306;2023-02-01T05:40:44;18.17;;;7.03;;
15155;SDS011;7678;50.058;8.306;2023-02-01T05:43:15;18.97;;;7.57;;
15155;SDS011;7678;50.058;8.306;2023-02-01T05:45:43;16.93;;;7.53;;
15155;SDS011;7678;50.058;8.306;2023-02-01T05:48:11;15.63;;;8.00;;
15155;SDS011;7678;50.058;8.306;2023-02-01T05:50:41;21.23;;;7.43;;
15155;SDS011;7678;50.058;8.306;2023-02-01T05:53:10;16.13;;;6.27;;
15155;SDS011;7678;50.058;8.306;2023-02-01T05:55:38;20.23;;;7.57;;
15155;SDS011;7678;50.058;8.306;2023-02-01T05:58:06;18.27;;;6.40;;
15155;SDS011;7678;50.058;8.306;2023-02-01T06:00:34;15.60;;;6.73;;
15155;SDS011;7678;50.058;8.306;2023-02-01T06:03:02;14.10;;;6.30;;
15155;SDS011;7678;50.058;8.306;2023-02-01T06:05:30;15.40;;;6.20;;
15155;SDS011;7678;50.058;8.306;2023-02-01T06:07:59;12.73;;;5.70;;
15155;SDS011;7678;50.058;8.306;2023-02-01T06:10:27;19.47;;;6.00;;
15155;SDS011;7678;50.058;8.306;2023-02-01T06:12:55;17.47;;;6.17;;
15155;SDS011;7678;50.058;8.306;2023-02-01T06:15:23;16.00;;;5.53;;
15155;SDS011;7678;50.058;8.306;2023-02-01T06:17:51;15.50;;;6.23;;
15155;SDS011;7678;50.058;8.306;2023-02-01T06:20:19;15.70;;;6.60;;
15155;SDS011;7678;50.058;8.306;2023-02-01T06:22:48;13.47;;;6.17;;
15155;SDS011;7678;50.058;8.306;2023-02-01T06:25:20;14.97;;;6.70;;
15155;SDS011;7678;50.058;8.306;2023-02-01T06:27:48;21.60;;;6.80;;
15155;SDS011;7678;50.058;8.306;2023-02-01T06:30:16;16.47;;;6.67;;
15155;SDS011;7678;50.058;8.306;2023-02-01T06:32:49;16.50;;;6.27;;
15155;SDS011;7678;50.058;8.306;2023-02-01T06:35:19;18.00;;;6.80;;
15155;SDS011;7678;50.058;8.306;2023-02-01T06:37:47;16.83;;;6.00;;
15155;SDS011;7678;50.058;8.306;2023-02-01T06:40:15;14.87;;;6.43;;
15155;SDS011;7678;50.058;8.306;2023-02-01T06:42:45;15.63;;;6.93;;
15155;SDS011;7678;50.058;8.306;2023-02-01T06:45:13;25.30;;;7.33;;
15155;SDS011;7678;50.058;8.306;2023-02-01T06:47:41;17.03;;;7.03;;
15155;SDS011;7678;50.058;8.306;2023-02-01T06:50:09;21.77;;;7.60;;
15155;SDS011;7678;50.058;8.306;2023-02-01T06:52:38;19.40;;;6.20;;
15155;SDS011;7678;50.058;8.306;2023-02-01T06:55:06;17.80;;;6.50;;
15155;SDS011;7678;50.058;8.306;2023-02-01T06:57:34;16.93;;;6.87;;
15155;SDS011;7678;50.058;8.306;2023-02-01T07:00:07;16.93;;;6.57;;
15155;SDS011;7678;50.058;8.306;2023-02-01T07:02:36;24.70;;;7.37;;
15155;SDS011;7678;50.058;8.306;2023-02-01T07:05:05;20.90;;;7.10;;
15155;SDS011;7678;50.058;8.306;2023-02-01T07:07:34;23.80;;;7.23;;
15155;SDS011;7678;50.058;8.306;2023-02-01T07:10:02;23.40;;;8.17;;
15155;SDS011;7678;50.058;8.306;2023-02-01T07:12:30;21.33;;;7.53;;
15155;SDS011;7678;50.058;8.306;2023-02-01T07:14:58;22.30;;;8.17;;
15155;SDS011;7678;50.058;8.306;2023-02-01T07:17:29;22.37;;;7.70;;
15155;SDS011;7678;50.058;8.306;2023-02-01T07:19:57;22.10;;;7.43;;
15155;SDS011;7678;50.058;8.306;2023-02-01T07:22:26;20.80;;;7.27;;
15155;SDS011;7678;50.058;8.306;2023-02-01T07:24:54;26.10;;;7.70;;
15155;SDS011;7678;50.058;8.306;2023-02-01T07:27:22;21.93;;;8.50;;
15155;SDS011;7678;50.058;8.306;2023-02-01T07:29:51;20.93;;;8.50;;
15155;SDS011;7678;50.058;8.306;2023-02-01T07:32:21;20.20;;;8.00;;
15155;SDS011;7678;50.058;8.306;2023-02-01T07:34:51;21.23;;;6.83;;
15155;SDS011;7678;50.058;8.306;2023-02-01T07:37:19;21.83;;;6.67;;
15155;SDS011;7678;50.058;8.306;2023-02-01T07:39:47;21.47;;;7.57;;
15155;SDS011;7678;50.058;8.306;2023-02-01T07:42:15;26.13;;;8.17;;
15155;SDS011;7678;50.058;8.306;2023-02-01T07:44:43;19.50;;;6.87;;
15155;SDS011;7678;50.058;8.306;2023-02-01T07:47:11;24.20;;;6.90;;
15155;SDS011;7678;50.058;8.306;2023-02-01T07:49:39;17.77;;;6.50;;
15155;SDS011;7678;50.058;8.306;2023-02-01T07:52:08;19.90;;;6.93;;
15155;SDS011;7678;50.058;8.306;2023-02-01T07:54:37;22.93;;;6.20;;
15155;SDS011;7678;50.058;8.306;2023-02-01T07:57:05;21.03;;;6.53;;
15155;SDS011;7678;50.058;8.306;2023-02-01T07:59:34;22.83;;;6.13;;
15155;SDS011;7678;50.058;8.306;2023-02-01T08:02:22;18.07;;;5.53;;
15155;SDS011;7678;50.058;8.306;2023-02-01T08:04:50;22.13;;;5.57;;
15155;SDS011;7678;50.058;8.306;2023-02-01T08:07:19;17.57;;;5.20;;
15155;SDS011;7678;50.058;8.306;2023-02-01T08:09:48;12.17;;;5.33;;
15155;SDS011;7678;50.058;8.306;2023-02-01T08:12:16;10.40;;;4.93;;
15155;SDS011;7678;50.058;8.306;2023-02-01T08:14:44;19.00;;;5.60;;
15155;SDS011;7678;50.058;8.306;2023-02-01T08:17:12;19.27;;;5.27;;
15155;SDS011;7678;50.058;8.306;2023-02-01T08:19:40;10.57;;;4.77;;
15155;SDS011;7678;50.058;8.306;2023-02-01T08:22:08;16.30;;;5.47;;
15155;SDS011;7678;50.058;8.306;2023-02-01T08:24:38;24.97;;;5.83;;
15155;SDS011;7678;50.058;8.306;2023-02-01T08:27:08;20.33;;;4.83;;
15155;SDS011;7678;50.058;8.306;2023-02-01T08:29:36;12.67;;;4.20;;
15155;SDS011;7678;50.058;8.306;2023-02-01T08:32:04;24.93;;;4.87;;
15155;SDS011;7678;50.058;8.306;2023-02-01T08:34:32;15.33;;;4.57;;
15155;SDS011;7678;50.058;8.306;2023-02-01T08:37:01;21.70;;;5.07;;
15155;SDS011;7678;50.058;8.306;2023-02-01T08:39:29;18.20;;;4.80;;
15155;SDS011;7678;50.058;8.306;2023-02-01T08:41:58;19.47;;;4.70;;
15155;SDS011;7678;50.058;8.306;2023-02-01T08:44:43;22.70;;;4.70;;
15155;SDS011;7678;50.058;8.306;2023-02-01T08:47:13;10.70;;;3.90;;
15155;SDS011;7678;50.058;8.306;2023-02-01T08:49:41;18.57;;;4.43;;
15155;SDS011;7678;50.058;8.306;2023-02-01T08:52:09;20.07;;;4.67;;
15155;SDS011;7678;50.058;8.306;2023-02-01T08:54:41;13.67;;;3.90;;
15155;SDS011;7678;50.058;8.306;2023-02-01T08:57:11;18.27;;;5.77;;
15155;SDS011;7678;50.058;8.306;2023-02-01T08:59:39;13.37;;;4.70;;
15155;SDS011;7678;50.058;8.306;2023-02-01T09:02:08;16.77;;;3.87;;
15155;SDS011;7678;50.058;8.306;2023-02-01T09:04:39;16.30;;;4.33;;
15155;SDS011;7678;50.058;8.306;2023-02-01T09:07:07;15.77;;;3.93;;
15155;SDS011;7678;50.058;8.306;2023-02-01T09:09:35;12.30;;;3.50;;
15155;SDS011;7678;50.058;8.306;2023-02-01T09:12:04;12.23;;;3.27;;
15155;SDS011;7678;50.058;8.306;2023-02-01T09:14:34;14.13;;;3.40;;
15155;SDS011;7678;50.058;8.306;2023-02-01T09:17:02;19.70;;;4.07;;
15155;SDS011;7678;50.058;8.306;2023-02-01T09:19:31;13.73;;;3.10;;
15155;SDS011;7678;50.058;8.306;2023-02-01T09:21:59;14.00;;;3.57;;
15155;SDS011;7678;50.058;8.306;2023-02-01T09:24:27;12.47;;;4.07;;
15155;SDS011;7678;50.058;8.306;2023-02-01T09:26:55;14.07;;;3.60;;
15155;SDS011;7678;50.058;8.306;2023-02-01T09:29:23;16.00;;;3.63;;
15155;SDS011;7678;50.058;8.306;2023-02-01T09:31:53;19.93;;;3.97;;
15155;SDS011;7678;50.058;8.306;2023-02-01T09:34:29;17.07;;;4.30;;
15155;SDS011;7678;50.058;8.306;2023-02-01T09:36:57;13.97;;;4.00;;
15155;SDS011;7678;50.058;8.306;2023-02-01T09:39:25;8.60;;;2.70;;
15155;SDS011;7678;50.058;8.306;2023-02-01T09:41:56;9.37;;;2.80;;
15155;SDS011;7678;50.058;8.306;2023-02-01T09:44:34;13.20;;;3.23;;
15155;SDS011;7678;50.058;8.306;2023-02-01T09:47:13;9.13;;;2.67;;
15155;SDS011;7678;50.058;8.306;2023-02-01T09:49:46;16.70;;;3.47;;
15155;SDS011;7678;50.058;8.306;2023-02-01T09:52:22;10.70;;;3.13;;
15155;SDS011;7678;50.058;8.306;2023-02-01T09:54:54;17.67;;;3.97;;
15155;SDS011;7678;50.058;8.306;2023-02-01T09:57:40;13.40;;;3.37;;
15155;SDS011;7678;50.058;8.306;2023-02-01T10:00:14;14.60;;;3.33;;
15155;SDS011;7678;50.058;8.306;2023-02-01T10:02:47;12.83;;;3.47;;
15155;SDS011;7678;50.058;8.306;2023-02-01T10:05:16;18.47;;;4.20;;
15155;SDS011;7678;50.058;8.306;2023-02-01T10:07:51;15.67;;;3.80;;
15155;SDS011;7678;50.058;8.306;2023-02-01T10:10:28;19.07;;;3.53;;
15155;SDS011;7678;50.058;8.306;2023-02-01T10:16:06;16.57;;;3.53;;
15155;SDS011;7678;50.058;8.306;2023-02-01T10:18:51;14.67;;;3.70;;
15155;SDS011;7678;50.058;8.306;2023-02-01T10:21:35;13.50;;;3.70;;
15155;SDS011;7678;50.058;8.306;2023-02-01T10:24:13;13.30;;;3.93;;
15155;SDS011;7678;50.058;8.306;2023-02-01T10:27:00;12.20;;;3.27;;
15155;SDS011;7678;50.058;8.306;2023-02-01T10:29:36;14.57;;;3.50;;
15155;SDS011;7678;50.058;8.306;2023-02-01T10:32:13;20.53;;;5.10;;
15155;SDS011;7678;50.058;8.306;2023-02-01T10:34:44;9.33;;;3.10;;
15155;SDS011;7678;50.058;8.306;2023-02-01T10:37:20;10.70;;;2.90;;
15155;SDS011;7678;50.058;8.306;2023-02-01T10:39:54;12.20;;;3.00;;
15155;SDS011;7678;50.058;8.306;2023-02-01T10:42:25;14.17;;;3.33;;
15155;SDS011;7678;50.058;8.306;2023-02-01T10:44:55;13.20;;;3.20;;
15155;SDS011;7678;50.058;8.306;2023-02-01T10:47:26;8.50;;;3.00;;
15155;SDS011;7678;50.058;8.306;2023-02-01T10:49:58;17.07;;;3.33;;
15155;SDS011;7678;50.058;8.306;2023-02-01T10:52:41;13.43;;;3.10;;
15155;SDS011;7678;50.058;8.306;2023-02-01T10:55:29;12.50;;;2.80;;
15155;SDS011;7678;50.058;8.306;2023-02-01T10:58:00;13.97;;;3.40;;
15155;SDS011;7678;50.058;8.306;2023-02-01T11:00:34;14.67;;;3.97;;
15155;SDS011;7678;50.058;8.306;2023-02-01T11:03:19;14.10;;;3.27;;
15155;SDS011;7678;50.058;8.306;2023-02-01T11:06:01;12.93;;;2.90;;
15155;SDS011;7678;50.058;8.306;2023-02-01T11:08:41;15.70;;;2.97;;
15155;SDS011;7678;50.058;8.306;2023-02-01T11:11:11;10.67;;;3.10;;
15155;SDS011;7678;50.058;8.306;2023-02-01T11:13:39;11.97;;;3.47;;
15155;SDS011;7678;50.058;8.306;2023-02-01T11:16:10;11.77;;;2.37;;
15155;SDS011;7678;50.058;8.306;2023-02-01T11:18:41;13.80;;;3.40;;
15155;SDS011;7678;50.058;8.306;2023-02-01T11:21:10;12.97;;;3.00;;
15155;SDS011;7678;50.058;8.306;2023-02-01T11:23:40;13.13;;;3.33;;
15155;SDS011;7678;50.058;8.306;2023-02-01T11:26:11;9.73;;;2.93;;
15155;SDS011;7678;50.058;8.306;2023-02-01T11:28:43;16.10;;;3.37;;
15155;SDS011;7678;50.058;8.306;2023-02-01T11:31:18;11.30;;;3.33;;
15155;SDS011;7678;50.058;8.306;2023-02-01T11:33:48;14.80;;;3.30;;
15155;SDS011;7678;50.058;8.306;2023-02-01T11:36:23;15.47;;;3.90;;
15155;SDS011;7678;50.058;8.306;2023-02-01T11:38:54;11.63;;;3.13;;
15155;SDS011;7678;50.058;8.306;2023-02-01T11:41:43;15.27;;;3.87;;
15155;SDS011;7678;50.058;8.306;2023-02-01T11:44:22;10.47;;;2.97;;
15155;SDS011;7678;50.058;8.306;2023-02-01T11:49:46;12.63;;;3.10;;
15155;SDS011;7678;50.058;8.306;2023-02-01T11:52:18;11.10;;;2.80;;
15155;SDS011;7678;50.058;8.306;2023-02-01T11:58:05;11.50;;;2.67;;
15155;SDS011;7678;50.058;8.306;2023-02-01T12:00:48;12.60;;;3.07;;
15155;SDS011;7678;50.058;8.306;2023-02-01T12:06:35;12.00;;;3.70;;
15155;SDS011;7678;50.058;8.306;2023-02-01T12:09:19;10.60;;;3.07;;
15155;SDS011;7678;50.058;8.306;2023-02-01T12:18:56;20.07;;;3.57;;
15155;SDS011;7678;50.058;8.306;2023-02-01T12:22:08;19.60;;;4.27;;
15155;SDS011;7678;50.058;8.306;2023-02-01T12:25:46;12.63;;;2.63;;
15155;SDS011;7678;50.058;8.306;2023-02-01T12:32:10;17.47;;;4.30;;
15155;SDS011;7678;50.058;8.306;2023-02-01T12:38:51;15.17;;;3.40;;
15155;SDS011;7678;50.058;8.306;2023-02-01T12:41:53;15.00;;;3.30;;
15155;SDS011;7678;50.058;8.306;2023-02-01T16:14:38;7.23;;;2.83;;
15155;SDS011;7678;50.058;8.306;2023-02-01T16:21:25;14.20;;;2.73;;
15155;SDS011;7678;50.058;8.306;2023-02-01T16:32:14;10.50;;;2.77;;
15155;SDS011;7678;50.058;8.306;2023-02-01T16:39:39;10.00;;;2.57;;
15155;SDS011;7678;50.058;8.306;2023-02-01T16:47:16;10.77;;;3.00;;
15155;SDS011;7678;50.058;8.306;2023-02-01T16:50:37;8.17;;;2.90;;
15155;SDS011;7678;50.058;8.306;2023-02-01T16:55:48;6.97;;;2.10;;
15155;SDS011;7678;50.058;8.306;2023-02-01T17:01:44;14.93;;;2.73;;
15155;SDS011;7678;50.058;8.306;2023-02-01T17:07:03;9.47;;;2.60;;
15155;SDS011;7678;50.058;8.306;2023-02-01T17:09:37;13.07;;;3.33;;
15155;SDS011;7678;50.058;8.306;2023-02-01T17:12:14;11.17;;;3.17;;
15155;SDS011;7678;50.058;8.306;2023-02-01T17:14:48;11.40;;;2.73;;
15155;SDS011;7678;50.058;8.306;2023-02-01T17:17:18;13.07;;;3.63;;
15155;SDS011;7678;50.058;8.306;2023-02-01T17:20:09;11.00;;;3.17;;
15155;SDS011;7678;50.058;8.306;2023-02-01T17:22:54;12.83;;;3.27;;
15155;SDS011;7678;50.058;8.306;2023-02-01T17:25:24;13.30;;;3.67;;
15155;SDS011;7678;50.058;8.306;2023-02-01T17:27:58;13.73;;;3.20;;
15155;SDS011;7678;50.058;8.306;2023-02-01T17:30:32;12.07;;;3.73;;
15155;SDS011;7678;50.058;8.306;2023-02-01T17:33:04;14.23;;;3.50;;
15155;SDS011;7678;50.058;8.306;2023-02-01T17:35:50;14.33;;;3.70;;
15155;SDS011;7678;50.058;8.306;2023-02-01T17:38:24;15.53;;;2.80;;
15155;SDS011;7678;50.058;8.306;2023-02-01T17:40:58;14.20;;;3.73;;
15155;SDS011;7678;50.058;8.306;2023-02-01T17:43:29;11.10;;;3.63;;
15155;SDS011;7678;50.058;8.306;2023-02-01T17:46:29;16.10;;;3.70;;
15155;SDS011;7678;50.058;8.306;2023-02-01T17:49:05;12.37;;;3.20;;
15155;SDS011;7678;50.058;8.306;2023-02-01T17:51:48;12.73;;;3.80;;
15155;SDS011;7678;50.058;8.306;2023-02-01T17:54:17;13.07;;;3.60;;
15155;SDS011;7678;50.058;8.306;2023-02-01T17:56:52;13.07;;;2.40;;
15155;SDS011;7678;50.058;8.306;2023-02-01T17:59:31;14.10;;;2.80;;
15155;SDS011;7678;50.058;8.306;2023-02-01T18:02:25;11.13;;;2.80;;
15155;SDS011;7678;50.058;8.306;2023-02-01T18:04:56;11.97;;;2.80;;
15155;SDS011;7678;50.058;8.306;2023-02-01T18:07:28;11.40;;;2.60;;
15155;SDS011;7678;50.058;8.306;2023-02-01T18:10:09;13.73;;;3.00;;
15155;SDS011;7678;50.058;8.306;2023-02-01T18:12:51;20.67;;;2.60;;
15155;SDS011;7678;50.058;8.306;2023-02-01T18:15:21;15.13;;;3.63;;
15155;SDS011;7678;50.058;8.306;2023-02-01T18:17:52;10.80;;;3.20;;
15155;SDS011;7678;50.058;8.306;2023-02-01T18:20:22;8.17;;;3.03;;
15155;SDS011;7678;50.058;8.306;2023-02-01T18:26:39;15.63;;;3.57;;
15155;SDS011;7678;50.058;8.306;2023-02-01T18:29:27;11.30;;;2.70;;
15155;SDS011;7678;50.058;8.306;2023-02-01T18:36:50;16.03;;;2.83;;
15155;SDS011;7678;50.058;8.306;2023-02-01T19:30:10;11.00;;;2.93;;
15155;SDS011;7678;50.058;8.306;2023-02-01T19:55:46;16.20;;;3.43;;
15155;SDS011;7678;50.058;8.306;2023-02-01T19:58:14;14.37;;;3.43;;
15155;SDS011;7678;50.058;8.306;2023-02-01T20:00:43;11.70;;;3.17;;
15155;SDS011;7678;50.058;8.306;2023-02-01T20:03:12;6.87;;;2.60;;
15155;SDS011;7678;50.058;8.306;2023-02-01T20:05:40;12.93;;;3.53;;
15155;SDS011;7678;50.058;8.306;2023-02-01T20:08:09;9.03;;;2.70;;
15155;SDS011;7678;50.058;8.306;2023-02-01T20:10:41;13.97;;;2.90;;
15155;SDS011;7678;50.058;8.306;2023-02-01T20:13:12;11.63;;;4.07;;
15155;SDS011;7678;50.058;8.306;2023-02-01T20:15:41;11.17;;;3.60;;
15155;SDS011;7678;50.058;8.306;2023-02-01T20:18:09;13.27;;;2.93;;
15155;SDS011;7678;50.058;8.306;2023-02-01T20:20:39;14.23;;;3.67;;
15155;SDS011;7678;50.058;8.306;2023-02-01T20:23:08;10.37;;;2.83;;
15155;SDS011;7678;50.058;8.306;2023-02-01T20:25:37;14.33;;;3.30;;
15155;SDS011;7678;50.058;8.306;2023-02-01T20:28:06;12.07;;;3.17;;
15155;SDS011;7678;50.058;8.306;2023-02-01T20:30:36;10.30;;;3.30;;
15155;SDS011;7678;50.058;8.306;2023-02-01T20:33:05;14.33;;;4.43;;
15155;SDS011;7678;50.058;8.306;2023-02-01T20:35:33;13.47;;;3.70;;
15155;SDS011;7678;50.058;8.306;2023-02-01T20:38:02;15.13;;;4.00;;
15155;SDS011;7678;50.058;8.306;2023-02-01T20:40:30;10.80;;;3.20;;
15155;SDS011;7678;50.058;8.306;2023-02-01T20:42:58;10.57;;;2.77;;
15155;SDS011;7678;50.058;8.306;2023-02-01T20:45:26;10.07;;;3.13;;
15155;SDS011;7678;50.058;8.306;2023-02-01T20:47:56;13.63;;;2.77;;
15155;SDS011;7678;50.058;8.306;2023-02-01T20:50:24;12.57;;;2.80;;
15155;SDS011;7678;50.058;8.306;2023-02-01T20:52:52;13.23;;;3.10;;
15155;SDS011;7678;50.058;8.306;2023-02-01T20:55:20;7.03;;;2.53;;
15155;SDS011;7678;50.058;8.306;2023-02-01T20:57:50;12.03;;;2.77;;
15155;SDS011;7678;50.058;8.306;2023-02-01T21:00:19;12.43;;;3.17;;
15155;SDS011;7678;50.058;8.306;2023-02-01T21:02:48;10.03;;;3.07;;
15155;SDS011;7678;50.058;8.306;2023-02-01T21:05:17;10.80;;;2.37;;
15155;SDS011;7678;50.058;8.306;2023-02-01T21:07:45;9.13;;;2.90;;
15155;SDS011;7678;50.058;8.306;2023-02-01T21:10:13;9.20;;;2.30;;
15155;SDS011;7678;50.058;8.306;2023-02-01T21:12:41;13.57;;;3.60;;
15155;SDS011;7678;50.058;8.306;2023-02-01T21:15:10;11.27;;;2.57;;